createdAt,value
2024-03-16T00:01:43.188Z,8.85
2024-03-16T00:04:12.680Z,8.80
2024-03-16T00:06:42.036Z,6.85
2024-03-16T00:09:12.173Z,5.50
2024-03-16T00:11:41.372Z,7.28
2024-03-16T00:14:10.845Z,5.90
2024-03-16T00:16:40.045Z,5.63
2024-03-16T00:19:09.540Z,5.68
2024-03-16T00:21:39.065Z,8.88
2024-03-16T00:24:09.600Z,12.35
2024-03-16T00:26:39.049Z,7.93
2024-03-16T00:29:08.809Z,7.30
2024-03-16T00:31:38.110Z,6.47
2024-03-16T00:34:07.460Z,5.07
2024-03-16T00:36:36.832Z,8.05
2024-03-16T00:39:16.844Z,6.25
2024-03-16T00:41:46.471Z,8.07
2024-03-16T00:45:24.498Z,7.65
2024-03-16T00:47:57.478Z,8.45
2024-03-16T00:50:27.040Z,6.05
2024-03-16T00:52:56.308Z,7.75
2024-03-16T00:55:25.916Z,7.32
2024-03-16T00:57:55.197Z,6.88
2024-03-16T01:00:24.852Z,6.25
2024-03-16T01:02:54.211Z,7.28
2024-03-16T01:05:23.511Z,7.90
2024-03-16T01:07:52.732Z,7.60
2024-03-16T01:10:22.607Z,8.27
2024-03-16T01:12:51.940Z,6.97
2024-03-16T01:15:22.296Z,6.20
2024-03-16T01:17:51.701Z,7.43
2024-03-16T01:20:21.889Z,9.50
2024-03-16T01:22:51.188Z,5.85
2024-03-16T01:25:20.936Z,7.75
2024-03-16T01:27:50.218Z,6.47
2024-03-16T01:30:22.955Z,8.65
2024-03-16T01:32:52.239Z,6.75
2024-03-16T01:35:22.121Z,7.15
2024-03-16T01:37:52.507Z,7.10
2024-03-16T01:40:26.141Z,7.93
2024-03-16T01:42:56.059Z,7.32
2024-03-16T01:45:25.514Z,9.55
2024-03-16T01:47:56.440Z,7.05
2024-03-16T01:50:26.223Z,6.65
2024-03-16T01:52:55.509Z,6.78
2024-03-16T01:55:24.824Z,6.03
2024-03-16T01:57:54.205Z,9.55
2024-03-16T02:00:23.459Z,6.60
2024-03-16T02:02:52.750Z,5.53
2024-03-16T02:05:22.057Z,6.78
2024-03-16T02:07:51.420Z,6.20
2024-03-16T02:10:20.672Z,8.32
2024-03-16T02:12:50.402Z,6.60
2024-03-16T02:15:19.710Z,5.75
2024-03-16T02:17:49.194Z,5.95
2024-03-16T02:20:18.617Z,7.05
2024-03-16T02:22:48.818Z,6.35
2024-03-16T02:25:19.553Z,7.03
2024-03-16T02:27:49.181Z,7.32
2024-03-16T02:30:18.778Z,5.32
2024-03-16T02:32:48.128Z,5.00
2024-03-16T02:35:17.526Z,7.10
2024-03-16T02:37:46.794Z,6.45
2024-03-16T02:40:16.203Z,6.03
2024-03-16T02:42:45.550Z,6.93
2024-03-16T02:45:15.041Z,5.88
2024-03-16T02:47:45.149Z,6.30
2024-03-16T02:50:14.484Z,5.88
2024-03-16T02:52:43.841Z,9.25
2024-03-16T02:55:13.289Z,5.03
2024-03-16T02:57:42.629Z,6.35
2024-03-16T03:00:13.365Z,6.82
2024-03-16T03:02:42.711Z,6.85
2024-03-16T03:05:13.355Z,7.25
2024-03-16T03:07:42.681Z,5.53
2024-03-16T03:10:13.438Z,6.22
2024-03-16T03:12:42.818Z,9.77
2024-03-16T03:15:12.808Z,7.47
2024-03-16T03:17:42.089Z,6.90
2024-03-16T03:20:12.622Z,5.63
2024-03-16T03:22:41.920Z,8.95
2024-03-16T03:25:12.609Z,7.15
2024-03-16T03:27:42.162Z,6.97
2024-03-16T03:30:12.078Z,5.13
2024-03-16T03:32:41.352Z,6.57
2024-03-16T03:35:10.896Z,6.82
2024-03-16T03:37:40.140Z,7.32
2024-03-16T03:40:10.471Z,7.93
2024-03-16T03:42:46.811Z,8.02
2024-03-16T03:46:40.810Z,6.57
2024-03-16T03:49:16.208Z,6.47
2024-03-16T03:51:45.758Z,7.07
2024-03-16T03:54:15.109Z,6.60
2024-03-16T03:56:44.353Z,5.80
2024-03-16T03:59:14.207Z,6.85
2024-03-16T04:01:43.598Z,8.77
2024-03-16T04:04:12.937Z,6.90
2024-03-16T04:06:46.061Z,7.10
2024-03-16T04:09:15.680Z,5.97
2024-03-16T04:11:45.039Z,7.30
2024-03-16T04:14:14.327Z,5.80
2024-03-16T04:16:42.600Z,6.70
2024-03-16T04:19:12.186Z,6.07
2024-03-16T04:21:43.722Z,6.93
2024-03-16T04:24:13.192Z,5.28
2024-03-16T04:26:42.500Z,7.38
2024-03-16T04:29:11.896Z,5.68
2024-03-16T04:31:41.205Z,7.07
2024-03-16T04:34:11.273Z,6.72
2024-03-16T04:36:40.682Z,6.97
2024-03-16T04:39:10.036Z,7.78
2024-03-16T04:41:39.366Z,8.57
2024-03-16T04:44:08.696Z,6.75
2024-03-16T04:46:38.056Z,8.48
2024-03-16T04:49:08.511Z,8.25
2024-03-16T04:51:37.935Z,6.90
2024-03-16T04:54:07.529Z,5.75
2024-03-16T04:56:36.896Z,8.98
2024-03-16T04:59:06.221Z,8.18
2024-03-16T05:01:35.725Z,6.35
2024-03-16T05:04:05.494Z,8.00
2024-03-16T05:06:35.292Z,11.68
2024-03-16T05:09:07.223Z,10.70
2024-03-16T05:11:37.431Z,9.77
2024-03-16T05:14:08.694Z,9.93
2024-03-16T05:16:38.058Z,7.15
2024-03-16T05:19:08.437Z,7.65
2024-03-16T05:21:37.791Z,12.13
2024-03-16T05:24:07.532Z,17.58
2024-03-16T05:26:36.813Z,14.32
2024-03-16T05:29:07.214Z,11.80
2024-03-16T05:31:36.586Z,7.13
2024-03-16T05:34:06.831Z,7.72
2024-03-16T05:36:36.254Z,58.80
2024-03-16T05:39:05.690Z,95.88
2024-03-16T05:41:34.991Z,54.40
2024-03-16T05:44:04.225Z,44.83
2024-03-16T05:46:33.573Z,26.75
2024-03-16T05:49:02.891Z,12.35
2024-03-16T05:51:32.157Z,14.65
2024-03-16T05:54:01.571Z,13.75
2024-03-16T05:56:30.790Z,14.43
2024-03-16T05:59:00.021Z,12.07
2024-03-16T06:01:29.496Z,10.85
2024-03-16T06:03:58.926Z,11.63
2024-03-16T06:06:28.259Z,11.40
2024-03-16T06:08:57.742Z,14.18
2024-03-16T06:11:27.883Z,10.90
2024-03-16T06:13:57.184Z,6.30
2024-03-16T06:16:29.662Z,8.93
2024-03-16T06:19:00.494Z,10.05
2024-03-16T06:21:29.952Z,9.52
2024-03-16T06:23:59.334Z,8.68
2024-03-16T06:26:30.546Z,7.97
2024-03-16T06:29:06.816Z,10.90
2024-03-16T06:31:38.266Z,12.43
2024-03-16T06:34:08.103Z,8.63
2024-03-16T06:36:38.124Z,9.07
2024-03-16T06:39:12.386Z,9.38
2024-03-16T06:41:42.058Z,8.63
2024-03-16T06:46:24.736Z,11.55
2024-03-16T06:48:54.064Z,9.70
2024-03-16T06:51:23.468Z,9.85
2024-03-16T06:53:52.688Z,9.32
2024-03-16T06:56:22.007Z,12.55
2024-03-16T06:58:51.237Z,18.70
2024-03-16T07:01:22.204Z,10.13
2024-03-16T07:03:51.984Z,9.80
2024-03-16T07:06:21.336Z,9.13
2024-03-16T07:08:50.564Z,10.18
2024-03-16T07:11:20.659Z,10.65
2024-03-16T07:13:49.978Z,9.38
2024-03-16T07:16:19.348Z,8.88
2024-03-16T07:18:48.777Z,10.77
2024-03-16T07:21:20.861Z,9.18
2024-03-16T07:23:50.346Z,15.93
2024-03-16T07:26:19.578Z,9.98
2024-03-16T07:28:48.864Z,12.52
2024-03-16T07:31:18.113Z,12.25
2024-03-16T07:33:48.352Z,10.02
2024-03-16T07:36:17.674Z,9.65
2024-03-16T07:38:47.249Z,12.10
2024-03-16T07:41:16.637Z,9.95
2024-03-16T07:43:45.724Z,14.48
2024-03-16T07:46:15.248Z,13.38
2024-03-16T07:48:44.592Z,16.58
2024-03-16T07:51:15.574Z,11.25
2024-03-16T07:53:44.797Z,12.02
2024-03-16T07:56:14.073Z,9.25
2024-03-16T07:58:43.805Z,10.30
2024-03-16T08:01:14.254Z,14.90
2024-03-16T08:03:43.793Z,13.07
2024-03-16T08:06:13.078Z,13.23
2024-03-16T08:08:44.901Z,12.45
2024-03-16T08:11:14.637Z,11.00
2024-03-16T08:13:43.950Z,16.35
2024-03-16T08:16:13.323Z,9.85
2024-03-16T08:18:42.676Z,12.93
2024-03-16T08:21:14.385Z,12.98
2024-03-16T08:23:43.771Z,10.73
2024-03-16T08:26:14.410Z,13.05
2024-03-16T08:28:43.721Z,10.18
2024-03-16T08:31:13.193Z,9.90
2024-03-16T08:33:42.538Z,13.27
2024-03-16T08:36:12.017Z,11.18
2024-03-16T08:38:41.249Z,11.27
2024-03-16T08:41:10.539Z,12.35
2024-03-16T08:43:38.871Z,9.65
2024-03-16T08:46:08.447Z,11.00
2024-03-16T08:48:38.024Z,13.60
2024-03-16T08:51:07.405Z,9.65
2024-03-16T08:53:36.922Z,9.18
2024-03-16T08:56:08.401Z,10.07
2024-03-16T08:58:37.822Z,10.48
2024-03-16T09:01:08.073Z,10.02
2024-03-16T09:03:37.511Z,10.05
2024-03-16T09:06:08.993Z,15.35
2024-03-16T09:08:38.891Z,27.88
2024-03-16T09:11:08.197Z,8.60
2024-03-16T09:13:37.508Z,15.10
2024-03-16T09:16:07.870Z,22.52
2024-03-16T09:18:37.274Z,14.68
2024-03-16T09:21:07.176Z,10.07
2024-03-16T09:23:37.171Z,9.25
2024-03-16T09:26:06.664Z,11.45
2024-03-16T09:28:36.078Z,10.48
2024-03-16T09:31:06.954Z,10.40
2024-03-16T09:33:36.425Z,8.98
2024-03-16T09:36:07.478Z,7.78
2024-03-16T09:38:37.030Z,7.78
2024-03-16T09:41:06.756Z,9.45
